sensor_id;sensor_type;location;lat;lon;timestamp;P1;durP1;ratioP1;P2;durP2;ratioP2
9986;SDS011;5033;46.310;11.214;2022-08-19T00:01:26;2.55;;;2.35;;
9986;SDS011;5033;46.310;11.214;2022-08-19T00:03:54;2.42;;;2.10;;
9986;SDS011;5033;46.310;11.214;2022-08-19T00:06:22;2.22;;;2.08;;
9986;SDS011;5033;46.310;11.214;2022-08-19T00:08:50;1.90;;;1.77;;
9986;SDS011;5033;46.310;11.214;2022-08-19T00:11:18;2.92;;;1.90;;
9986;SDS011;5033;46.310;11.214;2022-08-19T00:13:45;2.30;;;2.13;;
9986;SDS011;5033;46.310;11.214;2022-08-19T00:16:13;2.08;;;1.88;;
9986;SDS011;5033;46.310;11.214;2022-08-19T00:18:40;2.28;;;2.05;;
9986;SDS011;5033;46.310;11.214;2022-08-19T00:21:08;2.50;;;2.00;;
9986;SDS011;5033;46.310;11.214;2022-08-19T00:23:35;2.05;;;1.85;;
9986;SDS011;5033;46.310;11.214;2022-08-19T00:26:04;2.03;;;1.92;;
9986;SDS011;5033;46.310;11.214;2022-08-19T00:28:32;2.78;;;2.10;;
9986;SDS011;5033;46.310;11.214;2022-08-19T00:31:00;2.13;;;1.92;;
9986;SDS011;5033;46.310;11.214;2022-08-19T00:33:28;2.40;;;2.20;;
9986;SDS011;5033;46.310;11.214;2022-08-19T00:35:57;2.53;;;2.33;;
9986;SDS011;5033;46.310;11.214;2022-08-19T00:38:24;2.63;;;2.38;;
9986;SDS011;5033;46.310;11.214;2022-08-19T00:40:53;23.48;;;3.75;;
9986;SDS011;5033;46.310;11.214;2022-08-19T00:43:23;4.55;;;2.70;;
9986;SDS011;5033;46.310;11.214;2022-08-19T00:45:51;4.88;;;3.30;;
9986;SDS011;5033;46.310;11.214;2022-08-19T00:48:19;2.95;;;2.75;;
9986;SDS011;5033;46.310;11.214;2022-08-19T00:50:47;3.15;;;2.55;;
9986;SDS011;5033;46.310;11.214;2022-08-19T00:53:19;2.90;;;2.60;;
9986;SDS011;5033;46.310;11.214;2022-08-19T00:55:49;3.05;;;2.75;;
9986;SDS011;5033;46.310;11.214;2022-08-19T00:58:20;2.95;;;2.50;;
9986;SDS011;5033;46.310;11.214;2022-08-19T01:00:50;3.40;;;3.10;;
9986;SDS011;5033;46.310;11.214;2022-08-19T01:03:18;3.10;;;2.78;;
9986;SDS011;5033;46.310;11.214;2022-08-19T01:05:47;3.50;;;3.03;;
9986;SDS011;5033;46.310;11.214;2022-08-19T01:08:17;2.72;;;2.53;;
9986;SDS011;5033;46.310;11.214;2022-08-19T01:10:46;2.47;;;2.38;;
9986;SDS011;5033;46.310;11.214;2022-08-19T01:13:15;5.63;;;3.25;;
9986;SDS011;5033;46.310;11.214;2022-08-19T01:15:47;2.30;;;2.10;;
9986;SDS011;5033;46.310;11.214;2022-08-19T01:18:17;3.80;;;3.45;;
9986;SDS011;5033;46.310;11.214;2022-08-19T01:20:46;3.00;;;2.70;;
9986;SDS011;5033;46.310;11.214;2022-08-19T01:23:15;2.80;;;2.40;;
9986;SDS011;5033;46.310;11.214;2022-08-19T01:25:44;2.15;;;2.05;;
9986;SDS011;5033;46.310;11.214;2022-08-19T01:28:15;2.17;;;2.08;;
9986;SDS011;5033;46.310;11.214;2022-08-19T01:30:45;2.00;;;1.90;;
9986;SDS011;5033;46.310;11.214;2022-08-19T01:33:12;2.42;;;2.28;;
9986;SDS011;5033;46.310;11.214;2022-08-19T01:35:40;2.20;;;2.10;;
9986;SDS011;5033;46.310;11.214;2022-08-19T01:38:09;2.35;;;2.22;;
9986;SDS011;5033;46.310;11.214;2022-08-19T01:40:46;2.60;;;2.40;;
9986;SDS011;5033;46.310;11.214;2022-08-19T01:43:13;2.45;;;2.25;;
9986;SDS011;5033;46.310;11.214;2022-08-19T01:45:40;2.38;;;2.17;;
9986;SDS011;5033;46.310;11.214;2022-08-19T01:48:08;3.00;;;2.47;;
9986;SDS011;5033;46.310;11.214;2022-08-19T01:50:35;2.17;;;1.98;;
9986;SDS011;5033;46.310;11.214;2022-08-19T01:53:04;2.22;;;2.10;;
9986;SDS011;5033;46.310;11.214;2022-08-19T01:55:34;2.00;;;1.90;;
9986;SDS011;5033;46.310;11.214;2022-08-19T01:58:03;2.38;;;2.17;;
9986;SDS011;5033;46.310;11.214;2022-08-19T02:00:32;5.32;;;2.25;;
9986;SDS011;5033;46.310;11.214;2022-08-19T02:02:59;2.75;;;2.55;;
9986;SDS011;5033;46.310;11.214;2022-08-19T02:05:27;2.38;;;2.17;;
9986;SDS011;5033;46.310;11.214;2022-08-19T02:07:54;1.92;;;1.83;;
9986;SDS011;5033;46.310;11.214;2022-08-19T02:10:22;2.10;;;1.90;;
9986;SDS011;5033;46.310;11.214;2022-08-19T02:12:50;1.70;;;1.60;;
9986;SDS011;5033;46.310;11.214;2022-08-19T02:15:19;3.20;;;1.80;;
9986;SDS011;5033;46.310;11.214;2022-08-19T02:17:47;2.88;;;2.10;;
9986;SDS011;5033;46.310;11.214;2022-08-19T02:20:14;2.40;;;1.80;;
9986;SDS011;5033;46.310;11.214;2022-08-19T02:22:42;2.58;;;2.10;;
9986;SDS011;5033;46.310;11.214;2022-08-19T02:25:10;3.17;;;2.40;;
9986;SDS011;5033;46.310;11.214;2022-08-19T02:27:37;2.40;;;2.20;;
9986;SDS011;5033;46.310;11.214;2022-08-19T02:30:05;2.33;;;2.13;;
9986;SDS011;5033;46.310;11.214;2022-08-19T02:32:36;2.00;;;1.80;;
9986;SDS011;5033;46.310;11.214;2022-08-19T02:35:03;2.00;;;1.90;;
9986;SDS011;5033;46.310;11.214;2022-08-19T02:37:31;2.30;;;2.10;;
9986;SDS011;5033;46.310;11.214;2022-08-19T02:40:15;2.00;;;1.90;;
9986;SDS011;5033;46.310;11.214;2022-08-19T02:42:43;2.55;;;1.92;;
9986;SDS011;5033;46.310;11.214;2022-08-19T02:45:10;2.20;;;2.00;;
9986;SDS011;5033;46.310;11.214;2022-08-19T02:47:39;2.28;;;2.08;;
9986;SDS011;5033;46.310;11.214;2022-08-19T02:50:07;2.35;;;1.98;;
9986;SDS011;5033;46.310;11.214;2022-08-19T02:52:34;2.28;;;2.10;;
9986;SDS011;5033;46.310;11.214;2022-08-19T02:55:02;2.20;;;2.00;;
9986;SDS011;5033;46.310;11.214;2022-08-19T02:57:30;2.00;;;1.90;;
9986;SDS011;5033;46.310;11.214;2022-08-19T02:59:57;3.08;;;1.77;;
9986;SDS011;5033;46.310;11.214;2022-08-19T03:02:26;2.92;;;2.15;;
9986;SDS011;5033;46.310;11.214;2022-08-19T03:04:55;3.05;;;2.50;;
9986;SDS011;5033;46.310;11.214;2022-08-19T03:07:22;2.40;;;2.20;;
9986;SDS011;5033;46.310;11.214;2022-08-19T03:09:49;2.60;;;2.40;;
9986;SDS011;5033;46.310;11.214;2022-08-19T03:12:16;2.30;;;2.10;;
9986;SDS011;5033;46.310;11.214;2022-08-19T03:14:43;2.95;;;2.35;;
9986;SDS011;5033;46.310;11.214;2022-08-19T03:17:11;2.22;;;2.00;;
9986;SDS011;5033;46.310;11.214;2022-08-19T03:19:38;3.80;;;2.47;;
9986;SDS011;5033;46.310;11.214;2022-08-19T03:22:07;2.90;;;2.28;;
9986;SDS011;5033;46.310;11.214;2022-08-19T03:24:34;2.40;;;2.17;;
9986;SDS011;5033;46.310;11.214;2022-08-19T03:27:01;1.98;;;1.88;;
9986;SDS011;5033;46.310;11.214;2022-08-19T03:29:30;2.42;;;1.83;;
9986;SDS011;5033;46.310;11.214;2022-08-19T03:31:58;2.97;;;2.22;;
9986;SDS011;5033;46.310;11.214;2022-08-19T03:34:28;1.90;;;1.80;;
9986;SDS011;5033;46.310;11.214;2022-08-19T03:36:57;3.33;;;1.90;;
9986;SDS011;5033;46.310;11.214;2022-08-19T03:39:31;2.00;;;1.90;;
9986;SDS011;5033;46.310;11.214;2022-08-19T03:41:59;2.25;;;1.90;;
9986;SDS011;5033;46.310;11.214;2022-08-19T03:44:28;1.90;;;1.80;;
9986;SDS011;5033;46.310;11.214;2022-08-19T03:46:57;1.95;;;1.85;;
9986;SDS011;5033;46.310;11.214;2022-08-19T03:49:26;1.70;;;1.60;;
9986;SDS011;5033;46.310;11.214;2022-08-19T03:51:55;1.90;;;1.80;;
9986;SDS011;5033;46.310;11.214;2022-08-19T03:54:23;1.70;;;1.60;;
9986;SDS011;5033;46.310;11.214;2022-08-19T03:56:53;1.70;;;1.60;;
9986;SDS011;5033;46.310;11.214;2022-08-19T03:59:22;3.28;;;1.50;;
9986;SDS011;5033;46.310;11.214;2022-08-19T04:01:51;1.70;;;1.60;;
9986;SDS011;5033;46.310;11.214;2022-08-19T04:04:19;1.83;;;1.60;;
9986;SDS011;5033;46.310;11.214;2022-08-19T04:06:46;2.13;;;1.55;;
9986;SDS011;5033;46.310;11.214;2022-08-19T04:09:14;1.58;;;1.48;;
9986;SDS011;5033;46.310;11.214;2022-08-19T04:11:42;1.60;;;1.50;;
9986;SDS011;5033;46.310;11.214;2022-08-19T04:14:14;2.08;;;1.98;;
9986;SDS011;5033;46.310;11.214;2022-08-19T04:16:43;1.52;;;1.42;;
9986;SDS011;5033;46.310;11.214;2022-08-19T04:19:11;1.95;;;1.85;;
9986;SDS011;5033;46.310;11.214;2022-08-19T04:21:39;2.92;;;2.28;;
9986;SDS011;5033;46.310;11.214;2022-08-19T04:24:06;4.20;;;1.98;;
9986;SDS011;5033;46.310;11.214;2022-08-19T04:26:35;2.00;;;1.90;;
9986;SDS011;5033;46.310;11.214;2022-08-19T04:29:04;4.40;;;2.33;;
9986;SDS011;5033;46.310;11.214;2022-08-19T04:31:36;2.35;;;2.15;;
9986;SDS011;5033;46.310;11.214;2022-08-19T04:34:04;3.22;;;2.40;;
9986;SDS011;5033;46.310;11.214;2022-08-19T04:36:34;2.45;;;1.70;;
9986;SDS011;5033;46.310;11.214;2022-08-19T04:39:03;2.17;;;2.08;;
9986;SDS011;5033;46.310;11.214;2022-08-19T04:41:32;1.85;;;1.75;;
9986;SDS011;5033;46.310;11.214;2022-08-19T04:44:18;1.67;;;1.58;;
9986;SDS011;5033;46.310;11.214;2022-08-19T04:46:48;1.65;;;1.55;;
9986;SDS011;5033;46.310;11.214;2022-08-19T04:49:17;1.35;;;1.35;;
9986;SDS011;5033;46.310;11.214;2022-08-19T04:51:47;1.70;;;1.60;;
9986;SDS011;5033;46.310;11.214;2022-08-19T04:54:15;1.50;;;1.40;;
9986;SDS011;5033;46.310;11.214;2022-08-19T04:56:45;1.65;;;1.55;;
9986;SDS011;5033;46.310;11.214;2022-08-19T04:59:14;1.60;;;1.50;;
9986;SDS011;5033;46.310;11.214;2022-08-19T05:01:43;1.30;;;1.30;;
9986;SDS011;5033;46.310;11.214;2022-08-19T05:04:18;2.05;;;1.60;;
9986;SDS011;5033;46.310;11.214;2022-08-19T05:06:47;2.88;;;1.67;;
9986;SDS011;5033;46.310;11.214;2022-08-19T05:09:15;1.17;;;1.08;;
9986;SDS011;5033;46.310;11.214;2022-08-19T05:11:43;1.60;;;1.50;;
9986;SDS011;5033;46.310;11.214;2022-08-19T05:14:11;1.30;;;1.30;;
9986;SDS011;5033;46.310;11.214;2022-08-19T05:16:39;1.30;;;1.30;;
9986;SDS011;5033;46.310;11.214;2022-08-19T05:19:06;1.20;;;1.10;;
9986;SDS011;5033;46.310;11.214;2022-08-19T05:21:52;1.20;;;1.20;;
9986;SDS011;5033;46.310;11.214;2022-08-19T05:24:37;1.70;;;1.38;;
9986;SDS011;5033;46.310;11.214;2022-08-19T05:27:04;1.23;;;1.20;;
9986;SDS011;5033;46.310;11.214;2022-08-19T05:29:32;1.60;;;1.38;;
9986;SDS011;5033;46.310;11.214;2022-08-19T05:32:00;2.03;;;1.70;;
9986;SDS011;5033;46.310;11.214;2022-08-19T05:34:30;1.50;;;1.40;;
9986;SDS011;5033;46.310;11.214;2022-08-19T05:37:00;2.20;;;1.25;;
9986;SDS011;5033;46.310;11.214;2022-08-19T05:39:30;1.58;;;1.30;;
9986;SDS011;5033;46.310;11.214;2022-08-19T05:42:00;1.77;;;1.60;;
9986;SDS011;5033;46.310;11.214;2022-08-19T05:44:31;1.50;;;1.40;;
9986;SDS011;5033;46.310;11.214;2022-08-19T05:47:01;1.58;;;1.48;;
9986;SDS011;5033;46.310;11.214;2022-08-19T05:49:31;1.65;;;1.52;;
9986;SDS011;5033;46.310;11.214;2022-08-19T05:52:02;2.15;;;1.40;;
9986;SDS011;5033;46.310;11.214;2022-08-19T05:54:30;2.47;;;1.90;;
9986;SDS011;5033;46.310;11.214;2022-08-19T05:56:58;2.75;;;1.70;;
9986;SDS011;5033;46.310;11.214;2022-08-19T05:59:27;2.92;;;1.45;;
9986;SDS011;5033;46.310;11.214;2022-08-19T06:01:54;2.05;;;1.80;;
9986;SDS011;5033;46.310;11.214;2022-08-19T06:04:22;3.55;;;2.13;;
9986;SDS011;5033;46.310;11.214;2022-08-19T06:06:51;2.70;;;1.92;;
9986;SDS011;5033;46.310;11.214;2022-08-19T06:09:21;2.97;;;2.28;;
9986;SDS011;5033;46.310;11.214;2022-08-19T06:11:49;2.33;;;2.15;;
9986;SDS011;5033;46.310;11.214;2022-08-19T06:14:20;2.05;;;1.95;;
9986;SDS011;5033;46.310;11.214;2022-08-19T06:16:48;1.90;;;1.80;;
9986;SDS011;5033;46.310;11.214;2022-08-19T06:19:17;1.85;;;1.75;;
9986;SDS011;5033;46.310;11.214;2022-08-19T06:21:47;2.47;;;2.28;;
9986;SDS011;5033;46.310;11.214;2022-08-19T06:24:16;2.30;;;2.20;;
9986;SDS011;5033;46.310;11.214;2022-08-19T06:26:47;2.28;;;2.10;;
9986;SDS011;5033;46.310;11.214;2022-08-19T06:29:16;2.05;;;1.83;;
9986;SDS011;5033;46.310;11.214;2022-08-19T06:31:45;1.98;;;1.88;;
9986;SDS011;5033;46.310;11.214;2022-08-19T06:34:15;2.38;;;2.17;;
9986;SDS011;5033;46.310;11.214;2022-08-19T06:36:44;2.10;;;1.90;;
9986;SDS011;5033;46.310;11.214;2022-08-19T06:39:14;2.10;;;2.00;;
9986;SDS011;5033;46.310;11.214;2022-08-19T06:41:44;2.03;;;1.90;;
9986;SDS011;5033;46.310;11.214;2022-08-19T06:44:14;2.00;;;1.90;;
9986;SDS011;5033;46.310;11.214;2022-08-19T06:46:42;2.08;;;1.88;;
9986;SDS011;5033;46.310;11.214;2022-08-19T06:49:10;1.90;;;1.80;;
9986;SDS011;5033;46.310;11.214;2022-08-19T06:51:39;2.30;;;1.90;;
9986;SDS011;5033;46.310;11.214;2022-08-19T06:54:07;2.05;;;1.80;;
9986;SDS011;5033;46.310;11.214;2022-08-19T06:56:34;3.33;;;2.35;;
9986;SDS011;5033;46.310;11.214;2022-08-19T06:59:05;2.00;;;1.80;;
9986;SDS011;5033;46.310;11.214;2022-08-19T07:01:34;2.67;;;1.90;;
9986;SDS011;5033;46.310;11.214;2022-08-19T07:04:03;1.75;;;1.65;;
9986;SDS011;5033;46.310;11.214;2022-08-19T07:06:31;1.67;;;1.58;;
9986;SDS011;5033;46.310;11.214;2022-08-19T07:08:59;1.90;;;1.80;;
9986;SDS011;5033;46.310;11.214;2022-08-19T07:11:26;2.17;;;1.90;;
9986;SDS011;5033;46.310;11.214;2022-08-19T07:13:54;2.10;;;1.70;;
9986;SDS011;5033;46.310;11.214;2022-08-19T07:16:22;1.95;;;1.77;;
9986;SDS011;5033;46.310;11.214;2022-08-19T07:18:49;2.50;;;2.20;;
9986;SDS011;5033;46.310;11.214;2022-08-19T07:21:18;1.98;;;1.88;;
9986;SDS011;5033;46.310;11.214;2022-08-19T07:23:47;2.78;;;2.00;;
9986;SDS011;5033;46.310;11.214;2022-08-19T07:26:16;2.28;;;2.00;;
9986;SDS011;5033;46.310;11.214;2022-08-19T07:28:45;2.00;;;1.80;;
9986;SDS011;5033;46.310;11.214;2022-08-19T07:31:14;2.50;;;2.10;;
9986;SDS011;5033;46.310;11.214;2022-08-19T07:33:44;2.25;;;1.98;;
9986;SDS011;5033;46.310;11.214;2022-08-19T07:36:14;3.97;;;2.10;;
9986;SDS011;5033;46.310;11.214;2022-08-19T07:38:45;2.53;;;2.08;;
9986;SDS011;5033;46.310;11.214;2022-08-19T07:41:16;3.13;;;2.45;;
9986;SDS011;5033;46.310;11.214;2022-08-19T07:43:45;2.28;;;2.08;;
9986;SDS011;5033;46.310;11.214;2022-08-19T07:46:13;3.03;;;2.00;;
9986;SDS011;5033;46.310;11.214;2022-08-19T07:48:41;2.13;;;1.92;;
9986;SDS011;5033;46.310;11.214;2022-08-19T07:51:13;2.35;;;2.15;;
9986;SDS011;5033;46.310;11.214;2022-08-19T07:53:42;2.05;;;1.92;;
9986;SDS011;5033;46.310;11.214;2022-08-19T07:56:11;2.10;;;1.90;;
9986;SDS011;5033;46.310;11.214;2022-08-19T07:58:39;4.80;;;2.38;;
9986;SDS011;5033;46.310;11.214;2022-08-19T08:01:09;2.28;;;2.17;;
9986;SDS011;5033;46.310;11.214;2022-08-19T08:03:40;2.35;;;2.15;;
9986;SDS011;5033;46.310;11.214;2022-08-19T08:06:26;5.07;;;2.30;;
9986;SDS011;5033;46.310;11.214;2022-08-19T08:09:11;2.70;;;1.90;;
9986;SDS011;5033;46.310;11.214;2022-08-19T08:11:48;4.15;;;2.20;;
9986;SDS011;5033;46.310;11.214;2022-08-19T08:14:18;2.95;;;2.08;;
9986;SDS011;5033;46.310;11.214;2022-08-19T08:16:47;3.28;;;2.13;;
9986;SDS011;5033;46.310;11.214;2022-08-19T08:19:17;5.18;;;2.40;;
9986;SDS011;5033;46.310;11.214;2022-08-19T08:21:47;2.30;;;2.10;;
9986;SDS011;5033;46.310;11.214;2022-08-19T08:24:14;2.40;;;2.20;;
9986;SDS011;5033;46.310;11.214;2022-08-19T08:26:42;2.10;;;1.90;;
9986;SDS011;5033;46.310;11.214;2022-08-19T08:29:10;2.22;;;2.03;;
9986;SDS011;5033;46.310;11.214;2022-08-19T08:31:38;2.13;;;1.95;;
9986;SDS011;5033;46.310;11.214;2022-08-19T08:34:06;2.15;;;2.00;;
9986;SDS011;5033;46.310;11.214;2022-08-19T08:36:35;2.15;;;2.05;;
9986;SDS011;5033;46.310;11.214;2022-08-19T08:39:07;2.40;;;2.17;;
9986;SDS011;5033;46.310;11.214;2022-08-19T08:41:37;2.28;;;2.08;;
9986;SDS011;5033;46.310;11.214;2022-08-19T08:44:13;2.22;;;2.13;;
9986;SDS011;5033;46.310;11.214;2022-08-19T08:46:45;2.38;;;1.70;;
9986;SDS011;5033;46.310;11.214;2022-08-19T08:49:18;2.45;;;2.15;;
9986;SDS011;5033;46.310;11.214;2022-08-19T08:51:54;1.90;;;1.80;;
9986;SDS011;5033;46.310;11.214;2022-08-19T08:54:30;2.88;;;2.20;;
9986;SDS011;5033;46.310;11.214;2022-08-19T08:57:00;2.25;;;2.05;;
9986;SDS011;5033;46.310;11.214;2022-08-19T08:59:34;2.03;;;1.80;;
9986;SDS011;5033;46.310;11.214;2022-08-19T09:02:08;2.40;;;1.83;;
9986;SDS011;5033;46.310;11.214;2022-08-19T09:04:35;3.03;;;2.00;;
9986;SDS011;5033;46.310;11.214;2022-08-19T09:07:10;2.33;;;2.13;;
9986;SDS011;5033;46.310;11.214;2022-08-19T09:09:50;3.95;;;2.00;;
9986;SDS011;5033;46.310;11.214;2022-08-19T09:12:20;1.88;;;1.77;;
9986;SDS011;5033;46.310;11.214;2022-08-19T09:14:53;1.88;;;1.77;;
9986;SDS011;5033;46.310;11.214;2022-08-19T09:17:25;2.80;;;1.90;;
9986;SDS011;5033;46.310;11.214;2022-08-19T09:19:56;4.13;;;2.38;;
9986;SDS011;5033;46.310;11.214;2022-08-19T09:22:29;2.38;;;2.15;;
9986;SDS011;5033;46.310;11.214;2022-08-19T09:24:58;2.58;;;1.92;;
9986;SDS011;5033;46.310;11.214;2022-08-19T09:27:26;2.10;;;1.90;;
9986;SDS011;5033;46.310;11.214;2022-08-19T09:29:54;1.77;;;1.67;;
9986;SDS011;5033;46.310;11.214;2022-08-19T09:32:22;2.28;;;1.80;;
9986;SDS011;5033;46.310;11.214;2022-08-19T09:34:51;1.95;;;1.85;;
9986;SDS011;5033;46.310;11.214;2022-08-19T09:37:19;2.60;;;2.13;;
9986;SDS011;5033;46.310;11.214;2022-08-19T09:39:46;3.08;;;1.75;;
9986;SDS011;5033;46.310;11.214;2022-08-19T09:42:15;2.38;;;2.00;;
9986;SDS011;5033;46.310;11.214;2022-08-19T09:44:42;1.73;;;1.60;;
9986;SDS011;5033;46.310;11.214;2022-08-19T09:47:10;2.13;;;1.95;;
9986;SDS011;5033;46.310;11.214;2022-08-19T09:49:39;1.80;;;1.70;;
9986;SDS011;5033;46.310;11.214;2022-08-19T09:52:08;4.10;;;1.80;;
9986;SDS011;5033;46.310;11.214;2022-08-19T09:54:36;3.65;;;1.70;;
9986;SDS011;5033;46.310;11.214;2022-08-19T09:57:03;2.08;;;1.88;;
9986;SDS011;5033;46.310;11.214;2022-08-19T09:59:34;2.35;;;1.60;;
9986;SDS011;5033;46.310;11.214;2022-08-19T10:02:02;1.40;;;1.30;;
9986;SDS011;5033;46.310;11.214;2022-08-19T10:04:29;1.90;;;1.75;;
9986;SDS011;5033;46.310;11.214;2022-08-19T10:07:10;2.65;;;1.88;;
9986;SDS011;5033;46.310;11.214;2022-08-19T10:09:37;2.63;;;1.70;;
9986;SDS011;5033;46.310;11.214;2022-08-19T10:12:06;1.73;;;1.63;;
9986;SDS011;5033;46.310;11.214;2022-08-19T10:14:35;1.92;;;1.73;;
9986;SDS011;5033;46.310;11.214;2022-08-19T10:17:03;2.05;;;1.90;;
9986;SDS011;5033;46.310;11.214;2022-08-19T10:19:30;1.75;;;1.48;;
9986;SDS011;5033;46.310;11.214;2022-08-19T10:22:02;2.72;;;2.20;;
9986;SDS011;5033;46.310;11.214;2022-08-19T10:24:30;2.90;;;1.90;;
9986;SDS011;5033;46.310;11.214;2022-08-19T10:26:58;2.88;;;1.60;;
9986;SDS011;5033;46.310;11.214;2022-08-19T10:29:28;2.05;;;1.60;;
9986;SDS011;5033;46.310;11.214;2022-08-19T10:31:58;2.13;;;1.60;;
9986;SDS011;5033;46.310;11.214;2022-08-19T10:34:25;2.03;;;1.60;;
9986;SDS011;5033;46.310;11.214;2022-08-19T10:36:53;2.10;;;1.75;;
9986;SDS011;5033;46.310;11.214;2022-08-19T10:39:20;2.72;;;1.75;;
9986;SDS011;5033;46.310;11.214;2022-08-19T10:41:47;2.00;;;1.80;;
9986;SDS011;5033;46.310;11.214;2022-08-19T10:44:14;2.05;;;1.95;;
9986;SDS011;5033;46.310;11.214;2022-08-19T10:46:43;2.55;;;1.80;;
9986;SDS011;5033;46.310;11.214;2022-08-19T10:49:13;1.88;;;1.50;;
9986;SDS011;5033;46.310;11.214;2022-08-19T10:51:40;1.75;;;1.65;;
9986;SDS011;5033;46.310;11.214;2022-08-19T10:54:25;1.70;;;1.45;;
9986;SDS011;5033;46.310;11.214;2022-08-19T10:57:13;1.70;;;1.60;;
9986;SDS011;5033;46.310;11.214;2022-08-19T10:59:40;1.65;;;1.55;;
9986;SDS011;5033;46.310;11.214;2022-08-19T11:02:08;2.08;;;1.80;;
9986;SDS011;5033;46.310;11.214;2022-08-19T11:04:38;3.13;;;1.83;;
9986;SDS011;5033;46.310;11.214;2022-08-19T11:07:07;2.25;;;1.55;;
9986;SDS011;5033;46.310;11.214;2022-08-19T11:09:37;3.10;;;1.77;;
9986;SDS011;5033;46.310;11.214;2022-08-19T11:12:05;1.90;;;1.70;;
9986;SDS011;5033;46.310;11.214;2022-08-19T11:14:33;3.08;;;2.08;;
9986;SDS011;5033;46.310;11.214;2022-08-19T11:17:02;2.13;;;1.90;;
9986;SDS011;5033;46.310;11.214;2022-08-19T11:19:31;1.60;;;1.50;;
9986;SDS011;5033;46.310;11.214;2022-08-19T11:22:00;1.52;;;1.42;;
9986;SDS011;5033;46.310;11.214;2022-08-19T11:24:28;2.35;;;1.98;;
9986;SDS011;5033;46.310;11.214;2022-08-19T11:27:00;1.98;;;1.80;;
9986;SDS011;5033;46.310;11.214;2022-08-19T11:29:29;1.45;;;1.27;;
9986;SDS011;5033;46.310;11.214;2022-08-19T11:31:57;3.22;;;1.58;;
9986;SDS011;5033;46.310;11.214;2022-08-19T11:34:27;1.92;;;1.75;;
9986;SDS011;5033;46.310;11.214;2022-08-19T11:36:54;1.73;;;1.60;;
9986;SDS011;5033;46.310;11.214;2022-08-19T11:39:25;1.60;;;1.50;;
9986;SDS011;5033;46.310;11.214;2022-08-19T11:41:54;1.70;;;1.60;;
9986;SDS011;5033;46.310;11.214;2022-08-19T11:44:21;1.70;;;1.60;;
9986;SDS011;5033;46.310;11.214;2022-08-19T11:46:48;1.65;;;1.55;;
9986;SDS011;5033;46.310;11.214;2022-08-19T11:49:17;1.88;;;1.33;;
9986;SDS011;5033;46.310;11.214;2022-08-19T11:51:46;1.77;;;1.52;;
9986;SDS011;5033;46.310;11.214;2022-08-19T11:54:15;1.60;;;1.50;;
9986;SDS011;5033;46.310;11.214;2022-08-19T11:56:44;2.50;;;1.80;;
9986;SDS011;5033;46.310;11.214;2022-08-19T11:59:14;2.28;;;1.60;;
9986;SDS011;5033;46.310;11.214;2022-08-19T12:01:41;2.47;;;1.60;;
9986;SDS011;5033;46.310;11.214;2022-08-19T12:04:08;1.50;;;1.40;;
9986;SDS011;5033;46.310;11.214;2022-08-19T12:06:37;1.80;;;1.70;;
9986;SDS011;5033;46.310;11.214;2022-08-19T12:09:06;2.28;;;1.92;;
9986;SDS011;5033;46.310;11.214;2022-08-19T12:11:35;1.65;;;1.55;;
9986;SDS011;5033;46.310;11.214;2022-08-19T12:14:04;1.70;;;1.60;;
9986;SDS011;5033;46.310;11.214;2022-08-19T12:16:32;1.70;;;1.60;;
9986;SDS011;5033;46.310;11.214;2022-08-19T12:18:59;2.42;;;2.05;;
9986;SDS011;5033;46.310;11.214;2022-08-19T12:21:29;2.53;;;1.88;;
9986;SDS011;5033;46.310;11.214;2022-08-19T12:23:58;1.50;;;1.40;;
9986;SDS011;5033;46.310;11.214;2022-08-19T12:26:27;1.42;;;1.33;;
9986;SDS011;5033;46.310;11.214;2022-08-19T12:28:56;1.45;;;1.35;;
9986;SDS011;5033;46.310;11.214;2022-08-19T12:31:26;1.75;;;1.65;;
9986;SDS011;5033;46.310;11.214;2022-08-19T12:33:54;1.50;;;1.40;;
9986;SDS011;5033;46.310;11.214;2022-08-19T12:36:21;1.65;;;1.55;;
9986;SDS011;5033;46.310;11.214;2022-08-19T12:38:50;4.22;;;1.67;;
9986;SDS011;5033;46.310;11.214;2022-08-19T12:41:18;2.08;;;1.42;;
9986;SDS011;5033;46.310;11.214;2022-08-19T12:43:47;2.78;;;1.73;;
9986;SDS011;5033;46.310;11.214;2022-08-19T12:46:14;1.50;;;1.40;;
9986;SDS011;5033;46.310;11.214;2022-08-19T12:48:43;1.42;;;1.33;;
9986;SDS011;5033;46.310;11.214;2022-08-19T12:51:12;1.85;;;1.67;;
9986;SDS011;5033;46.310;11.214;2022-08-19T12:53:41;1.40;;;1.30;;
9986;SDS011;5033;46.310;11.214;2022-08-19T12:56:09;2.20;;;1.58;;
9986;SDS011;5033;46.310;11.214;2022-08-19T12:58:39;1.83;;;1.63;;
9986;SDS011;5033;46.310;11.214;2022-08-19T13:01:08;4.22;;;1.90;;
9986;SDS011;5033;46.310;11.214;2022-08-19T13:03:36;2.65;;;1.50;;
9986;SDS011;5033;46.310;11.214;2022-08-19T13:06:06;3.72;;;1.80;;
9986;SDS011;5033;46.310;11.214;2022-08-19T13:08:33;2.33;;;1.70;;
9986;SDS011;5033;46.310;11.214;2022-08-19T13:11:08;1.70;;;1.60;;
9986;SDS011;5033;46.310;11.214;2022-08-19T13:13:37;2.20;;;1.58;;
9986;SDS011;5033;46.310;11.214;2022-08-19T13:16:06;1.95;;;1.48;;
9986;SDS011;5033;46.310;11.214;2022-08-19T13:18:34;2.25;;;1.55;;
9986;SDS011;5033;46.310;11.214;2022-08-19T13:21:02;1.95;;;1.67;;
9986;SDS011;5033;46.310;11.214;2022-08-19T13:23:31;1.67;;;1.58;;
9986;SDS011;5033;46.310;11.214;2022-08-19T13:25:59;1.50;;;1.40;;
9986;SDS011;5033;46.310;11.214;2022-08-19T13:28:28;1.90;;;1.70;;
9986;SDS011;5033;46.310;11.214;2022-08-19T13:31:16;1.30;;;1.20;;
9986;SDS011;5033;46.310;11.214;2022-08-19T13:34:01;1.63;;;1.50;;
9986;SDS011;5033;46.310;11.214;2022-08-19T13:36:30;2.20;;;1.42;;
9986;SDS011;5033;46.310;11.214;2022-08-19T13:38:59;1.50;;;1.38;;
9986;SDS011;5033;46.310;11.214;2022-08-19T13:41:26;1.50;;;1.40;;
9986;SDS011;5033;46.310;11.214;2022-08-19T13:43:53;1.60;;;1.50;;
9986;SDS011;5033;46.310;11.214;2022-08-19T13:46:21;2.53;;;1.33;;
9986;SDS011;5033;46.310;11.214;2022-08-19T13:48:48;3.78;;;1.80;;
9986;SDS011;5033;46.310;11.214;2022-08-19T13:51:15;3.50;;;1.70;;
9986;SDS011;5033;46.310;11.214;2022-08-19T13:53:43;1.58;;;1.48;;
9986;SDS011;5033;46.310;11.214;2022-08-19T13:56:13;2.80;;;1.63;;
9986;SDS011;5033;46.310;11.214;2022-08-19T13:58:41;2.50;;;1.45;;
9986;SDS011;5033;46.310;11.214;2022-08-19T14:01:08;2.50;;;1.60;;
9986;SDS011;5033;46.310;11.214;2022-08-19T14:03:36;2.72;;;1.50;;
9986;SDS011;5033;46.310;11.214;2022-08-19T14:06:04;1.80;;;1.70;;
9986;SDS011;5033;46.310;11.214;2022-08-19T14:08:31;2.15;;;1.92;;
9986;SDS011;5033;46.310;11.214;2022-08-19T14:10:59;2.90;;;1.77;;
9986;SDS011;5033;46.310;11.214;2022-08-19T14:13:27;1.55;;;1.45;;
9986;SDS011;5033;46.310;11.214;2022-08-19T14:15:56;1.25;;;1.20;;
9986;SDS011;5033;46.310;11.214;2022-08-19T14:18:23;1.10;;;1.10;;
9986;SDS011;5033;46.310;11.214;2022-08-19T14:20:50;1.63;;;1.33;;
9986;SDS011;5033;46.310;11.214;2022-08-19T14:23:17;1.30;;;1.10;;
9986;SDS011;5033;46.310;11.214;2022-08-19T14:25:45;1.08;;;1.08;;
9986;SDS011;5033;46.310;11.214;2022-08-19T14:28:12;1.58;;;1.35;;
9986;SDS011;5033;46.310;11.214;2022-08-19T14:30:41;1.20;;;1.20;;
9986;SDS011;5033;46.310;11.214;2022-08-19T14:33:10;1.67;;;1.30;;
9986;SDS011;5033;46.310;11.214;2022-08-19T14:35:38;1.35;;;1.20;;
9986;SDS011;5033;46.310;11.214;2022-08-19T14:38:14;1.13;;;1.02;;
9986;SDS011;5033;46.310;11.214;2022-08-19T14:40:42;1.13;;;1.02;;
9986;SDS011;5033;46.310;11.214;2022-08-19T14:43:11;1.95;;;1.33;;
9986;SDS011;5033;46.310;11.214;2022-08-19T14:45:38;2.08;;;1.70;;
9986;SDS011;5033;46.310;11.214;2022-08-19T14:48:07;2.72;;;1.42;;
9986;SDS011;5033;46.310;11.214;2022-08-19T14:50:35;2.00;;;1.80;;
9986;SDS011;5033;46.310;11.214;2022-08-19T14:53:03;3.95;;;1.65;;
9986;SDS011;5033;46.310;11.214;2022-08-19T14:55:32;2.47;;;1.50;;
9986;SDS011;5033;46.310;11.214;2022-08-19T14:57:59;2.15;;;1.67;;
9986;SDS011;5033;46.310;11.214;2022-08-19T15:00:27;2.25;;;1.80;;
9986;SDS011;5033;46.310;11.214;2022-08-19T15:02:55;2.08;;;1.80;;
9986;SDS011;5033;46.310;11.214;2022-08-19T15:05:24;2.60;;;1.42;;
9986;SDS011;5033;46.310;11.214;2022-08-19T15:07:52;2.58;;;1.23;;
9986;SDS011;5033;46.310;11.214;2022-08-19T15:10:22;1.50;;;1.30;;
9986;SDS011;5033;46.310;11.214;2022-08-19T15:12:49;1.85;;;1.33;;